»·PEaware :: DCM205 KSAN-KPHX

DCM205 :: KSAN-KPHX

FLIGHT INFORMATION

Flight Status: Arrived
Operator:
DotCom
More flights by this operator :: More flights under this callsign
Pilot: Chris S. (2433)
Aircraft: BOEING 737-700
(B737)
More flights by this aircraft type
Origin: KSAN San Diego Intl-Lindbergh
United States
Destination: KPHX Phoenix Sky Harbor Intl
United States
More flights between these airports :: More routes between these airports
Route: +ZZOOO2 IPL J18 BZA HOGGZ HYDRR1
File this flight plan on PilotEdge
Remarks:
Altitude:
(Current/Filed)
35,000ft
Speed:
(Current/Filed)
450kts
Departed: 24-Jun-20 03:56 PM
Arrived: 24-Jun-20 04:44 PM
Distance/Time
Traveled:
265nm/0:47
Distance/Time
To Go:
Arrived

Flight Plot

Page will automatically refresh every two minutes.

Flight plan parsing failed; only flown route is shown


Map Options




Map Legend


Flown Route
Filed Route
Departure Airport
Arrival Airport
Navaid (VOR, NDB)
Fix

Horizontal Profiles

Position Reports

Time Latitude Longitude Heading Altitude Ground
Speed
24-Jun-20 15:38 32.732849 -117.202664 349 28ft 0kts
24-Jun-20 15:39 32.732849 -117.202664 349 28ft 0kts
24-Jun-20 15:40 32.732849 -117.202664 349 28ft 0kts
24-Jun-20 15:41 32.732849 -117.202664 349 28ft 0kts
24-Jun-20 15:42 32.732849 -117.202664 349 28ft 0kts
24-Jun-20 15:43 32.732849 -117.202664 349 28ft 0kts
24-Jun-20 15:44 32.732849 -117.202664 349 28ft 0kts
24-Jun-20 15:45 32.732849 -117.202664 349 28ft 0kts
24-Jun-20 15:46 32.732849 -117.202665 349 28ft 0kts
24-Jun-20 15:47 32.732849 -117.202665 349 28ft 0kts
24-Jun-20 15:48 32.733702 -117.202811 1 28ft 7kts
24-Jun-20 15:49 32.735262 -117.200908 104 28ft 16kts
24-Jun-20 15:50 32.733855 -117.195162 106 28ft 17kts
24-Jun-20 15:51 32.732661 -117.190184 106 28ft 15kts
24-Jun-20 15:52 32.731147 -117.183898 106 28ft 21kts
24-Jun-20 15:53 32.729736 -117.178217 106 28ft 3kts
24-Jun-20 15:54 32.729620 -117.176301 69 28ft 10kts
24-Jun-20 15:55 32.731680 -117.182256 286 28ft 108kts
24-Jun-20 15:56 32.745244 -117.238946 285 2527ft 211kts
24-Jun-20 15:57 32.750620 -117.316984 237 4459ft 273kts
24-Jun-20 15:58 32.681451 -117.326865 139 7773ft 291kts
24-Jun-20 15:59 32.635567 -117.244352 110 10643ft 324kts
24-Jun-20 16:00 32.620416 -117.125233 95 12595ft 388kts
24-Jun-20 16:01 32.608924 -116.993737 96 15714ft 410kts
24-Jun-20 16:02 32.612734 -116.856257 76 18718ft 429kts
24-Jun-20 16:03 32.637200 -116.714382 83 21386ft 450kts
24-Jun-20 16:04 32.650581 -116.564171 83 22939ft 463kts
24-Jun-20 16:05 32.665263 -116.409343 82 25192ft 480kts
24-Jun-20 16:06 32.681042 -116.249539 83 27354ft 496kts
24-Jun-20 16:07 32.695936 -116.088740 83 29097ft 513kts
24-Jun-20 16:08 32.711642 -115.918198 82 30743ft 522kts
24-Jun-20 16:09 32.727580 -115.748012 82 32657ft 517kts
24-Jun-20 16:10 32.742634 -115.578860 82 34102ft 515kts
24-Jun-20 16:11 32.751762 -115.408948 87 34687ft 516kts
24-Jun-20 16:12 32.755534 -115.238761 86 34704ft 516kts
24-Jun-20 16:13 32.759109 -115.066806 87 34675ft 520kts
24-Jun-20 16:14 32.762908 -114.895280 87 34677ft 519kts
24-Jun-20 16:15 32.766008 -114.724108 87 34680ft 518kts
24-Jun-20 16:16 32.768741 -114.559306 87 34568ft 474kts
24-Jun-20 16:17 32.771090 -114.402797 87 33131ft 469kts
24-Jun-20 16:18 32.773000 -114.249997 87 31421ft 453kts
24-Jun-20 16:19 32.774520 -114.102733 88 29738ft 438kts
24-Jun-20 16:20 32.786676 -113.961350 80 28059ft 423kts
24-Jun-20 16:21 32.801860 -113.824592 80 26392ft 410kts
24-Jun-20 16:22 32.821540 -113.693940 60 24741ft 393kts
24-Jun-20 16:23 32.888404 -113.590986 45 23154ft 389kts
24-Jun-20 16:24 32.959661 -113.495998 47 21635ft 381kts
24-Jun-20 16:25 33.028864 -113.402352 47 20149ft 372kts
24-Jun-20 16:26 33.096842 -113.310808 47 18694ft 365kts
24-Jun-20 16:27 33.163254 -113.220825 48 17574ft 364kts
24-Jun-20 16:28 33.228917 -113.131491 48 16130ft 351kts
24-Jun-20 16:29 33.274476 -113.032199 81 14855ft 347kts
24-Jun-20 16:30 33.278305 -112.918205 89 13333ft 338kts
24-Jun-20 16:31 33.286196 -112.807555 73 11778ft 334kts
24-Jun-20 16:32 33.323738 -112.706200 66 10209ft 331kts
24-Jun-20 16:33 33.358938 -112.613931 66 9487ft 286kts
24-Jun-20 16:34 33.390325 -112.531455 66 8404ft 264kts
24-Jun-20 16:35 33.419470 -112.451309 68 7344ft 259kts
24-Jun-20 16:36 33.429727 -112.371288 92 6400ft 231kts
24-Jun-20 16:38 33.428354 -112.295920 90 5268ft 228kts
24-Jun-20 16:39 33.438597 -112.224474 79 4240ft 210kts
24-Jun-20 16:40 33.440880 -112.156492 92 3259ft 192kts
24-Jun-20 16:41 33.440824 -112.097217 91 2289ft 170kts
24-Jun-20 16:42 33.441051 -112.040654 91 1385ft 167kts
24-Jun-20 16:43 33.440870 -111.997020 90 1148ft 50kts
24-Jun-20 16:44 33.439768 -111.993761 234 1148ft 8kts

Navigation Log

Ident Type
Flight plan parsing failed, navigation log unavailable